sensor_id;sensor_type;location;lat;lon;timestamp;P1;durP1;ratioP1;P2;durP2;ratioP2
70951;SDS011;69214;55.880;37.542;2023-08-06T00:01:33;6.47;;;2.50;;
70951;SDS011;69214;55.880;37.542;2023-08-06T00:03:59;7.38;;;2.35;;
70951;SDS011;69214;55.880;37.542;2023-08-06T00:06:25;7.97;;;2.38;;
70951;SDS011;69214;55.880;37.542;2023-08-06T00:08:51;6.57;;;2.47;;
70951;SDS011;69214;55.880;37.542;2023-08-06T00:11:17;6.40;;;2.35;;
70951;SDS011;69214;55.880;37.542;2023-08-06T00:13:43;5.93;;;2.08;;
70951;SDS011;69214;55.880;37.542;2023-08-06T00:16:12;6.83;;;2.13;;
70951;SDS011;69214;55.880;37.542;2023-08-06T00:18:39;4.97;;;2.22;;
70951;SDS011;69214;55.880;37.542;2023-08-06T00:21:05;5.95;;;2.10;;
70951;SDS011;69214;55.880;37.542;2023-08-06T00:23:31;5.38;;;1.77;;
70951;SDS011;69214;55.880;37.542;2023-08-06T00:25:57;7.07;;;2.17;;
70951;SDS011;69214;55.880;37.542;2023-08-06T00:28:23;6.10;;;1.90;;
70951;SDS011;69214;55.880;37.542;2023-08-06T00:30:55;4.90;;;2.00;;
70951;SDS011;69214;55.880;37.542;2023-08-06T00:33:22;6.30;;;1.87;;
70951;SDS011;69214;55.880;37.542;2023-08-06T00:35:48;4.55;;;1.92;;
70951;SDS011;69214;55.880;37.542;2023-08-06T00:38:14;6.50;;;2.25;;
70951;SDS011;69214;55.880;37.542;2023-08-06T00:40:39;6.32;;;2.40;;
70951;SDS011;69214;55.880;37.542;2023-08-06T00:43:05;4.60;;;2.07;;
70951;SDS011;69214;55.880;37.542;2023-08-06T00:45:33;5.30;;;2.20;;
70951;SDS011;69214;55.880;37.542;2023-08-06T00:48:07;7.53;;;2.50;;
70951;SDS011;69214;55.880;37.542;2023-08-06T00:50:33;7.15;;;2.38;;
70951;SDS011;69214;55.880;37.542;2023-08-06T00:52:59;5.55;;;2.08;;
70951;SDS011;69214;55.880;37.542;2023-08-06T00:55:25;5.60;;;2.37;;
70951;SDS011;69214;55.880;37.542;2023-08-06T00:57:51;6.28;;;2.35;;
70951;SDS011;69214;55.880;37.542;2023-08-06T01:00:21;7.65;;;2.30;;
70951;SDS011;69214;55.880;37.542;2023-08-06T01:02:49;5.85;;;2.40;;
70951;SDS011;69214;55.880;37.542;2023-08-06T01:05:15;7.30;;;2.50;;
70951;SDS011;69214;55.880;37.542;2023-08-06T01:07:45;6.37;;;1.90;;
70951;SDS011;69214;55.880;37.542;2023-08-06T01:10:23;5.85;;;2.22;;
70951;SDS011;69214;55.880;37.542;2023-08-06T01:15:45;6.30;;;1.92;;
70951;SDS011;69214;55.880;37.542;2023-08-06T01:18:13;6.20;;;2.30;;
70951;SDS011;69214;55.880;37.542;2023-08-06T01:20:40;4.15;;;1.80;;
70951;SDS011;69214;55.880;37.542;2023-08-06T01:23:06;5.63;;;2.30;;
70951;SDS011;69214;55.880;37.542;2023-08-06T01:26:10;6.03;;;1.98;;
70951;SDS011;69214;55.880;37.542;2023-08-06T01:31:32;5.87;;;2.20;;
70951;SDS011;69214;55.880;37.542;2023-08-06T01:34:03;6.85;;;2.10;;
70951;SDS011;69214;55.880;37.542;2023-08-06T01:36:32;6.47;;;2.40;;
70951;SDS011;69214;55.880;37.542;2023-08-06T01:38:59;5.25;;;1.85;;
70951;SDS011;69214;55.880;37.542;2023-08-06T01:41:25;4.55;;;2.00;;
70951;SDS011;69214;55.880;37.542;2023-08-06T01:43:51;4.13;;;1.73;;
70951;SDS011;69214;55.880;37.542;2023-08-06T01:46:17;7.22;;;2.22;;
70951;SDS011;69214;55.880;37.542;2023-08-06T01:48:43;4.60;;;2.03;;
70951;SDS011;69214;55.880;37.542;2023-08-06T01:51:09;5.57;;;1.90;;
70951;SDS011;69214;55.880;37.542;2023-08-06T01:53:35;6.80;;;2.17;;
70951;SDS011;69214;55.880;37.542;2023-08-06T01:56:01;7.03;;;2.40;;
70951;SDS011;69214;55.880;37.542;2023-08-06T01:58:27;5.93;;;2.17;;
70951;SDS011;69214;55.880;37.542;2023-08-06T02:00:53;7.20;;;2.03;;
70951;SDS011;69214;55.880;37.542;2023-08-06T02:03:18;5.77;;;2.00;;
70951;SDS011;69214;55.880;37.542;2023-08-06T02:05:48;6.53;;;2.20;;
70951;SDS011;69214;55.880;37.542;2023-08-06T02:08:14;5.50;;;2.15;;
70951;SDS011;69214;55.880;37.542;2023-08-06T02:10:39;6.25;;;2.20;;
70951;SDS011;69214;55.880;37.542;2023-08-06T02:13:07;6.78;;;2.42;;
70951;SDS011;69214;55.880;37.542;2023-08-06T02:15:33;6.20;;;2.07;;
70951;SDS011;69214;55.880;37.542;2023-08-06T02:18:01;7.35;;;2.30;;
70951;SDS011;69214;55.880;37.542;2023-08-06T02:20:59;7.15;;;2.20;;
70951;SDS011;69214;55.880;37.542;2023-08-06T02:23:25;7.20;;;2.50;;
70951;SDS011;69214;55.880;37.542;2023-08-06T02:26:01;6.13;;;2.30;;
70951;SDS011;69214;55.880;37.542;2023-08-06T02:28:29;5.27;;;2.23;;
70951;SDS011;69214;55.880;37.542;2023-08-06T02:30:55;5.68;;;2.20;;
70951;SDS011;69214;55.880;37.542;2023-08-06T02:33:21;6.60;;;2.58;;
70951;SDS011;69214;55.880;37.542;2023-08-06T02:35:47;9.45;;;2.40;;
70951;SDS011;69214;55.880;37.542;2023-08-06T02:38:13;4.80;;;2.17;;
70951;SDS011;69214;55.880;37.542;2023-08-06T02:40:44;4.50;;;1.90;;
70951;SDS011;69214;55.880;37.542;2023-08-06T02:43:11;5.50;;;2.30;;
70951;SDS011;69214;55.880;37.542;2023-08-06T02:45:37;7.20;;;2.40;;
70951;SDS011;69214;55.880;37.542;2023-08-06T02:48:03;6.20;;;2.67;;
70951;SDS011;69214;55.880;37.542;2023-08-06T02:50:29;7.30;;;2.40;;
70951;SDS011;69214;55.880;37.542;2023-08-06T02:52:55;6.67;;;2.40;;
70951;SDS011;69214;55.880;37.542;2023-08-06T02:55:21;7.85;;;2.85;;
70951;SDS011;69214;55.880;37.542;2023-08-06T02:57:48;5.75;;;2.20;;
70951;SDS011;69214;55.880;37.542;2023-08-06T03:00:14;4.93;;;2.40;;
70951;SDS011;69214;55.880;37.542;2023-08-06T03:02:41;7.63;;;2.70;;
70951;SDS011;69214;55.880;37.542;2023-08-06T03:05:33;7.28;;;2.53;;
70951;SDS011;69214;55.880;37.542;2023-08-06T03:07:58;6.57;;;2.65;;
70951;SDS011;69214;55.880;37.542;2023-08-06T03:10:27;5.20;;;2.30;;
70951;SDS011;69214;55.880;37.542;2023-08-06T03:12:56;10.57;;;3.50;;
70951;SDS011;69214;55.880;37.542;2023-08-06T03:15:22;8.40;;;2.97;;
70951;SDS011;69214;55.880;37.542;2023-08-06T03:17:49;5.57;;;2.38;;
70951;SDS011;69214;55.880;37.542;2023-08-06T03:20:19;6.40;;;2.50;;
70951;SDS011;69214;55.880;37.542;2023-08-06T03:22:44;6.47;;;2.63;;
70951;SDS011;69214;55.880;37.542;2023-08-06T03:25:10;6.40;;;2.72;;
70951;SDS011;69214;55.880;37.542;2023-08-06T03:27:37;6.47;;;2.70;;
70951;SDS011;69214;55.880;37.542;2023-08-06T03:30:03;5.30;;;2.55;;
70951;SDS011;69214;55.880;37.542;2023-08-06T03:32:31;7.33;;;2.80;;
70951;SDS011;69214;55.880;37.542;2023-08-06T03:34:58;7.72;;;2.80;;
70951;SDS011;69214;55.880;37.542;2023-08-06T03:37:30;5.90;;;2.80;;
70951;SDS011;69214;55.880;37.542;2023-08-06T03:39:56;7.13;;;3.20;;
70951;SDS011;69214;55.880;37.542;2023-08-06T03:42:22;6.50;;;3.25;;
70951;SDS011;69214;55.880;37.542;2023-08-06T03:44:48;6.50;;;3.20;;
70951;SDS011;69214;55.880;37.542;2023-08-06T03:47:14;7.88;;;3.00;;
70951;SDS011;69214;55.880;37.542;2023-08-06T03:49:40;6.03;;;3.00;;
70951;SDS011;69214;55.880;37.542;2023-08-06T03:52:07;6.60;;;3.20;;
70951;SDS011;69214;55.880;37.542;2023-08-06T03:54:33;10.07;;;3.60;;
70951;SDS011;69214;55.880;37.542;2023-08-06T03:56:59;11.32;;;3.03;;
70951;SDS011;69214;55.880;37.542;2023-08-06T03:59:24;12.50;;;3.55;;
70951;SDS011;69214;55.880;37.542;2023-08-06T04:01:50;6.78;;;3.38;;
70951;SDS011;69214;55.880;37.542;2023-08-06T04:04:16;7.87;;;3.77;;
70951;SDS011;69214;55.880;37.542;2023-08-06T04:06:42;7.15;;;3.90;;
70951;SDS011;69214;55.880;37.542;2023-08-06T04:09:08;7.00;;;3.60;;
70951;SDS011;69214;55.880;37.542;2023-08-06T04:11:33;7.90;;;3.85;;
70951;SDS011;69214;55.880;37.542;2023-08-06T04:13:59;7.05;;;4.25;;
70951;SDS011;69214;55.880;37.542;2023-08-06T04:16:25;7.03;;;4.10;;
70951;SDS011;69214;55.880;37.542;2023-08-06T04:18:52;10.80;;;4.38;;
70951;SDS011;69214;55.880;37.542;2023-08-06T04:21:19;7.25;;;4.38;;
70951;SDS011;69214;55.880;37.542;2023-08-06T04:23:46;6.85;;;4.40;;
70951;SDS011;69214;55.880;37.542;2023-08-06T04:26:13;8.38;;;4.90;;
70951;SDS011;69214;55.880;37.542;2023-08-06T04:28:39;7.30;;;4.60;;
70951;SDS011;69214;55.880;37.542;2023-08-06T04:31:05;7.07;;;4.97;;
70951;SDS011;69214;55.880;37.542;2023-08-06T04:33:32;8.75;;;4.55;;
70951;SDS011;69214;55.880;37.542;2023-08-06T04:36:03;8.55;;;4.97;;
70951;SDS011;69214;55.880;37.542;2023-08-06T04:38:29;9.63;;;4.80;;
70951;SDS011;69214;55.880;37.542;2023-08-06T04:40:55;10.23;;;4.63;;
70951;SDS011;69214;55.880;37.542;2023-08-06T04:43:22;6.57;;;5.32;;
70951;SDS011;69214;55.880;37.542;2023-08-06T04:45:49;7.70;;;5.03;;
70951;SDS011;69214;55.880;37.542;2023-08-06T04:48:16;8.00;;;5.28;;
70951;SDS011;69214;55.880;37.542;2023-08-06T04:50:46;6.10;;;4.87;;
70951;SDS011;69214;55.880;37.542;2023-08-06T04:53:13;7.75;;;5.38;;
70951;SDS011;69214;55.880;37.542;2023-08-06T04:55:39;9.18;;;5.22;;
70951;SDS011;69214;55.880;37.542;2023-08-06T04:58:05;10.13;;;5.13;;
70951;SDS011;69214;55.880;37.542;2023-08-06T05:00:31;5.60;;;4.60;;
70951;SDS011;69214;55.880;37.542;2023-08-06T05:02:59;9.77;;;5.40;;
70951;SDS011;69214;55.880;37.542;2023-08-06T05:05:25;8.10;;;5.63;;
70951;SDS011;69214;55.880;37.542;2023-08-06T05:07:51;7.90;;;5.28;;
70951;SDS011;69214;55.880;37.542;2023-08-06T05:10:19;7.85;;;5.68;;
70951;SDS011;69214;55.880;37.542;2023-08-06T05:12:45;7.10;;;5.73;;
70951;SDS011;69214;55.880;37.542;2023-08-06T05:15:11;7.22;;;5.55;;
70951;SDS011;69214;55.880;37.542;2023-08-06T05:17:36;7.07;;;6.07;;
70951;SDS011;69214;55.880;37.542;2023-08-06T05:20:03;7.72;;;5.75;;
70951;SDS011;69214;55.880;37.542;2023-08-06T05:22:29;10.95;;;5.45;;
70951;SDS011;69214;55.880;37.542;2023-08-06T05:24:55;9.05;;;6.22;;
70951;SDS011;69214;55.880;37.542;2023-08-06T05:27:21;8.77;;;6.23;;
70951;SDS011;69214;55.880;37.542;2023-08-06T05:29:47;6.68;;;5.97;;
70951;SDS011;69214;55.880;37.542;2023-08-06T05:32:13;7.78;;;6.40;;
70951;SDS011;69214;55.880;37.542;2023-08-06T05:34:39;9.37;;;6.00;;
70951;SDS011;69214;55.880;37.542;2023-08-06T05:37:07;8.48;;;6.32;;
70951;SDS011;69214;55.880;37.542;2023-08-06T05:39:33;9.95;;;6.60;;
70951;SDS011;69214;55.880;37.542;2023-08-06T05:41:59;7.47;;;6.13;;
70951;SDS011;69214;55.880;37.542;2023-08-06T05:44:25;9.45;;;6.25;;
70951;SDS011;69214;55.880;37.542;2023-08-06T05:46:50;11.73;;;6.88;;
70951;SDS011;69214;55.880;37.542;2023-08-06T05:49:18;9.40;;;6.70;;
70951;SDS011;69214;55.880;37.542;2023-08-06T05:51:44;8.53;;;6.60;;
70951;SDS011;69214;55.880;37.542;2023-08-06T05:54:10;8.63;;;7.13;;
70951;SDS011;69214;55.880;37.542;2023-08-06T05:56:36;9.68;;;7.13;;
70951;SDS011;69214;55.880;37.542;2023-08-06T05:59:01;7.87;;;6.53;;
70951;SDS011;69214;55.880;37.542;2023-08-06T06:01:27;8.38;;;7.43;;
70951;SDS011;69214;55.880;37.542;2023-08-06T06:03:53;8.53;;;6.90;;
70951;SDS011;69214;55.880;37.542;2023-08-06T06:06:19;7.93;;;7.10;;
70951;SDS011;69214;55.880;37.542;2023-08-06T06:08:45;8.98;;;7.40;;
70951;SDS011;69214;55.880;37.542;2023-08-06T06:11:11;8.57;;;7.00;;
70951;SDS011;69214;55.880;37.542;2023-08-06T06:13:37;8.07;;;7.27;;
70951;SDS011;69214;55.880;37.542;2023-08-06T06:16:03;9.32;;;7.13;;
70951;SDS011;69214;55.880;37.542;2023-08-06T06:18:38;8.95;;;7.03;;
70951;SDS011;69214;55.880;37.542;2023-08-06T06:21:03;7.33;;;6.60;;
70951;SDS011;69214;55.880;37.542;2023-08-06T06:23:29;8.25;;;7.15;;
70951;SDS011;69214;55.880;37.542;2023-08-06T06:25:55;8.23;;;7.43;;
70951;SDS011;69214;55.880;37.542;2023-08-06T06:28:24;8.20;;;6.37;;
70951;SDS011;69214;55.880;37.542;2023-08-06T06:30:50;9.52;;;8.05;;
70951;SDS011;69214;55.880;37.542;2023-08-06T06:33:17;8.85;;;6.82;;
70951;SDS011;69214;55.880;37.542;2023-08-06T06:35:43;8.33;;;7.53;;
70951;SDS011;69214;55.880;37.542;2023-08-06T06:38:08;8.93;;;7.32;;
70951;SDS011;69214;55.880;37.542;2023-08-06T06:40:34;7.78;;;7.07;;
70951;SDS011;69214;55.880;37.542;2023-08-06T06:43:00;7.87;;;7.17;;
70951;SDS011;69214;55.880;37.542;2023-08-06T06:45:26;9.23;;;8.20;;
70951;SDS011;69214;55.880;37.542;2023-08-06T06:47:52;7.95;;;7.25;;
70951;SDS011;69214;55.880;37.542;2023-08-06T06:50:17;8.20;;;7.40;;
70951;SDS011;69214;55.880;37.542;2023-08-06T06:52:43;9.07;;;8.27;;
70951;SDS011;69214;55.880;37.542;2023-08-06T06:55:09;7.43;;;6.63;;
70951;SDS011;69214;55.880;37.542;2023-08-06T06:57:35;7.93;;;7.22;;
70951;SDS011;69214;55.880;37.542;2023-08-06T07:00:00;8.18;;;7.45;;
70951;SDS011;69214;55.880;37.542;2023-08-06T07:02:26;9.20;;;7.30;;
70951;SDS011;69214;55.880;37.542;2023-08-06T07:04:52;7.97;;;6.65;;
70951;SDS011;69214;55.880;37.542;2023-08-06T07:07:18;7.93;;;7.22;;
70951;SDS011;69214;55.880;37.542;2023-08-06T07:09:44;7.37;;;6.67;;
70951;SDS011;69214;55.880;37.542;2023-08-06T07:12:10;7.53;;;6.72;;
70951;SDS011;69214;55.880;37.542;2023-08-06T07:14:36;8.27;;;7.35;;
70951;SDS011;69214;55.880;37.542;2023-08-06T07:17:01;8.60;;;6.73;;
70951;SDS011;69214;55.880;37.542;2023-08-06T07:19:27;7.75;;;6.78;;
70951;SDS011;69214;55.880;37.542;2023-08-06T07:21:53;8.68;;;7.30;;
70951;SDS011;69214;55.880;37.542;2023-08-06T07:24:21;6.37;;;5.67;;
70951;SDS011;69214;55.880;37.542;2023-08-06T07:26:47;6.63;;;6.03;;
70951;SDS011;69214;55.880;37.542;2023-08-06T07:29:13;7.82;;;6.97;;
70951;SDS011;69214;55.880;37.542;2023-08-06T07:31:45;8.05;;;7.25;;
70951;SDS011;69214;55.880;37.542;2023-08-06T07:34:11;8.75;;;7.28;;
70951;SDS011;69214;55.880;37.542;2023-08-06T07:36:37;9.00;;;7.93;;
70951;SDS011;69214;55.880;37.542;2023-08-06T07:39:03;7.78;;;7.07;;
70951;SDS011;69214;55.880;37.542;2023-08-06T07:41:31;7.88;;;7.18;;
70951;SDS011;69214;55.880;37.542;2023-08-06T07:43:57;8.00;;;7.18;;
70951;SDS011;69214;55.880;37.542;2023-08-06T07:46:23;6.80;;;6.07;;
70951;SDS011;69214;55.880;37.542;2023-08-06T07:48:49;6.60;;;5.97;;
70951;SDS011;69214;55.880;37.542;2023-08-06T07:51:15;7.47;;;6.50;;
70951;SDS011;69214;55.880;37.542;2023-08-06T07:53:40;10.00;;;5.72;;
70951;SDS011;69214;55.880;37.542;2023-08-06T07:56:06;8.25;;;5.60;;
70951;SDS011;69214;55.880;37.542;2023-08-06T07:58:32;5.77;;;5.17;;
70951;SDS011;69214;55.880;37.542;2023-08-06T08:00:58;6.88;;;6.03;;
70951;SDS011;69214;55.880;37.542;2023-08-06T08:03:24;6.53;;;4.95;;
70951;SDS011;69214;55.880;37.542;2023-08-06T08:05:50;6.45;;;4.75;;
70951;SDS011;69214;55.880;37.542;2023-08-06T08:08:23;7.07;;;4.70;;
70951;SDS011;69214;55.880;37.542;2023-08-06T08:10:49;5.33;;;4.17;;
70951;SDS011;69214;55.880;37.542;2023-08-06T08:13:14;5.65;;;3.80;;
70951;SDS011;69214;55.880;37.542;2023-08-06T08:15:40;5.30;;;4.20;;
70951;SDS011;69214;55.880;37.542;2023-08-06T08:18:07;5.20;;;4.40;;
70951;SDS011;69214;55.880;37.542;2023-08-06T08:20:33;5.97;;;4.60;;
70951;SDS011;69214;55.880;37.542;2023-08-06T08:23:00;6.22;;;4.20;;
70951;SDS011;69214;55.880;37.542;2023-08-06T08:25:27;5.95;;;3.75;;
70951;SDS011;69214;55.880;37.542;2023-08-06T08:27:54;5.83;;;3.30;;
70951;SDS011;69214;55.880;37.542;2023-08-06T08:30:20;3.75;;;2.55;;
70951;SDS011;69214;55.880;37.542;2023-08-06T08:32:47;7.00;;;3.05;;
70951;SDS011;69214;55.880;37.542;2023-08-06T08:35:13;5.35;;;3.00;;
70951;SDS011;69214;55.880;37.542;2023-08-06T08:37:41;5.90;;;2.90;;
70951;SDS011;69214;55.880;37.542;2023-08-06T08:40:08;5.63;;;3.20;;
70951;SDS011;69214;55.880;37.542;2023-08-06T08:42:35;6.45;;;2.70;;
70951;SDS011;69214;55.880;37.542;2023-08-06T08:45:02;4.78;;;2.60;;
70951;SDS011;69214;55.880;37.542;2023-08-06T08:47:31;6.57;;;2.38;;
70951;SDS011;69214;55.880;37.542;2023-08-06T08:49:57;4.72;;;2.58;;
70951;SDS011;69214;55.880;37.542;2023-08-06T08:52:24;5.47;;;2.30;;
70951;SDS011;69214;55.880;37.542;2023-08-06T08:54:50;4.65;;;2.22;;
70951;SDS011;69214;55.880;37.542;2023-08-06T08:57:18;4.80;;;2.28;;
70951;SDS011;69214;55.880;37.542;2023-08-06T08:59:44;5.75;;;2.65;;
70951;SDS011;69214;55.880;37.542;2023-08-06T09:02:11;7.00;;;2.63;;
70951;SDS011;69214;55.880;37.542;2023-08-06T09:04:40;6.15;;;2.30;;
70951;SDS011;69214;55.880;37.542;2023-08-06T09:07:07;3.80;;;1.75;;
70951;SDS011;69214;55.880;37.542;2023-08-06T09:09:35;6.03;;;2.30;;
70951;SDS011;69214;55.880;37.542;2023-08-06T09:12:09;4.40;;;2.10;;
70951;SDS011;69214;55.880;37.542;2023-08-06T09:14:37;4.90;;;2.13;;
70951;SDS011;69214;55.880;37.542;2023-08-06T09:17:03;4.30;;;2.15;;
70951;SDS011;69214;55.880;37.542;2023-08-06T09:19:31;5.80;;;2.05;;
70951;SDS011;69214;55.880;37.542;2023-08-06T09:21:58;4.57;;;2.38;;
70951;SDS011;69214;55.880;37.542;2023-08-06T09:24:24;4.33;;;2.27;;
70951;SDS011;69214;55.880;37.542;2023-08-06T09:26:52;4.20;;;1.80;;
70951;SDS011;69214;55.880;37.542;2023-08-06T09:29:18;6.88;;;2.05;;
70951;SDS011;69214;55.880;37.542;2023-08-06T09:31:45;4.85;;;2.13;;
70951;SDS011;69214;55.880;37.542;2023-08-06T09:36:43;3.57;;;1.67;;
70951;SDS011;69214;55.880;37.542;2023-08-06T09:39:16;6.45;;;2.05;;
70951;SDS011;69214;55.880;37.542;2023-08-06T09:41:43;3.67;;;1.83;;
70951;SDS011;69214;55.880;37.542;2023-08-06T09:44:16;4.30;;;2.13;;
70951;SDS011;69214;55.880;37.542;2023-08-06T09:46:48;4.75;;;1.92;;
70951;SDS011;69214;55.880;37.542;2023-08-06T09:49:15;5.57;;;2.20;;
70951;SDS011;69214;55.880;37.542;2023-08-06T09:51:46;5.70;;;2.20;;
70951;SDS011;69214;55.880;37.542;2023-08-06T09:54:16;5.20;;;2.15;;
70951;SDS011;69214;55.880;37.542;2023-08-06T09:56:44;3.60;;;1.90;;
70951;SDS011;69214;55.880;37.542;2023-08-06T09:59:11;4.13;;;2.20;;
70951;SDS011;69214;55.880;37.542;2023-08-06T10:01:37;6.50;;;2.03;;
70951;SDS011;69214;55.880;37.542;2023-08-06T10:04:03;5.60;;;2.30;;
70951;SDS011;69214;55.880;37.542;2023-08-06T10:06:34;5.28;;;2.47;;
70951;SDS011;69214;55.880;37.542;2023-08-06T10:09:02;6.78;;;2.42;;
70951;SDS011;69214;55.880;37.542;2023-08-06T10:11:28;5.25;;;2.17;;
70951;SDS011;69214;55.880;37.542;2023-08-06T10:13:58;6.77;;;2.37;;
70951;SDS011;69214;55.880;37.542;2023-08-06T10:16:29;3.95;;;1.98;;
70951;SDS011;69214;55.880;37.542;2023-08-06T10:18:56;4.18;;;2.17;;
70951;SDS011;69214;55.880;37.542;2023-08-06T10:21:25;6.25;;;2.20;;
70951;SDS011;69214;55.880;37.542;2023-08-06T10:23:54;7.13;;;2.20;;
70951;SDS011;69214;55.880;37.542;2023-08-06T10:26:20;5.20;;;2.10;;
70951;SDS011;69214;55.880;37.542;2023-08-06T10:28:46;7.20;;;2.15;;
70951;SDS011;69214;55.880;37.542;2023-08-06T10:31:12;4.32;;;2.22;;
70951;SDS011;69214;55.880;37.542;2023-08-06T10:33:44;4.32;;;2.25;;
70951;SDS011;69214;55.880;37.542;2023-08-06T10:36:11;4.77;;;2.33;;
70951;SDS011;69214;55.880;37.542;2023-08-06T10:38:48;5.38;;;2.08;;
70951;SDS011;69214;55.880;37.542;2023-08-06T10:44:06;6.18;;;1.90;;
70951;SDS011;69214;55.880;37.542;2023-08-06T10:46:35;4.25;;;1.92;;
70951;SDS011;69214;55.880;37.542;2023-08-06T10:49:02;4.50;;;2.40;;
70951;SDS011;69214;55.880;37.542;2023-08-06T10:51:29;4.93;;;2.10;;
70951;SDS011;69214;55.880;37.542;2023-08-06T10:53:55;4.35;;;2.50;;
70951;SDS011;69214;55.880;37.542;2023-08-06T10:56:24;3.70;;;1.98;;
70951;SDS011;69214;55.880;37.542;2023-08-06T10:58:54;5.10;;;1.95;;
70951;SDS011;69214;55.880;37.542;2023-08-06T11:01:22;3.83;;;2.00;;
70951;SDS011;69214;55.880;37.542;2023-08-06T11:03:49;5.40;;;1.88;;
70951;SDS011;69214;55.880;37.542;2023-08-06T11:06:17;4.53;;;2.45;;
70951;SDS011;69214;55.880;37.542;2023-08-06T11:08:50;5.53;;;2.35;;
70951;SDS011;69214;55.880;37.542;2023-08-06T11:11:17;5.15;;;2.42;;
70951;SDS011;69214;55.880;37.542;2023-08-06T11:13:44;6.20;;;2.27;;
70951;SDS011;69214;55.880;37.542;2023-08-06T11:16:12;5.82;;;2.30;;
70951;SDS011;69214;55.880;37.542;2023-08-06T11:18:40;5.88;;;2.03;;
70951;SDS011;69214;55.880;37.542;2023-08-06T11:21:08;3.70;;;2.17;;
70951;SDS011;69214;55.880;37.542;2023-08-06T11:23:34;5.50;;;2.28;;
70951;SDS011;69214;55.880;37.542;2023-08-06T11:26:01;4.43;;;2.20;;
70951;SDS011;69214;55.880;37.542;2023-08-06T11:28:28;5.10;;;2.45;;
70951;SDS011;69214;55.880;37.542;2023-08-06T11:30:54;5.50;;;2.40;;
70951;SDS011;69214;55.880;37.542;2023-08-06T11:33:23;4.10;;;1.98;;
70951;SDS011;69214;55.880;37.542;2023-08-06T11:35:54;5.55;;;2.13;;
70951;SDS011;69214;55.880;37.542;2023-08-06T11:38:22;6.27;;;2.47;;
70951;SDS011;69214;55.880;37.542;2023-08-06T11:40:51;4.35;;;2.38;;
70951;SDS011;69214;55.880;37.542;2023-08-06T11:43:18;5.22;;;2.33;;
70951;SDS011;69214;55.880;37.542;2023-08-06T11:45:46;4.97;;;2.38;;
70951;SDS011;69214;55.880;37.542;2023-08-06T11:48:12;3.97;;;2.22;;
70951;SDS011;69214;55.880;37.542;2023-08-06T11:50:38;5.03;;;2.20;;
70951;SDS011;69214;55.880;37.542;2023-08-06T11:53:04;5.20;;;2.58;;
70951;SDS011;69214;55.880;37.542;2023-08-06T11:55:31;5.63;;;2.60;;
70951;SDS011;69214;55.880;37.542;2023-08-06T11:57:57;4.82;;;2.42;;
70951;SDS011;69214;55.880;37.542;2023-08-06T12:00:26;5.90;;;2.40;;
70951;SDS011;69214;55.880;37.542;2023-08-06T12:02:52;4.95;;;2.17;;
70951;SDS011;69214;55.880;37.542;2023-08-06T12:05:20;5.22;;;2.40;;
70951;SDS011;69214;55.880;37.542;2023-08-06T12:07:51;7.47;;;2.45;;
70951;SDS011;69214;55.880;37.542;2023-08-06T12:10:22;5.22;;;2.70;;
70951;SDS011;69214;55.880;37.542;2023-08-06T12:12:49;4.53;;;2.20;;
70951;SDS011;69214;55.880;37.542;2023-08-06T12:15:16;5.32;;;2.65;;
70951;SDS011;69214;55.880;37.542;2023-08-06T12:17:42;4.93;;;2.45;;
70951;SDS011;69214;55.880;37.542;2023-08-06T12:20:08;4.32;;;2.38;;
70951;SDS011;69214;55.880;37.542;2023-08-06T12:22:35;5.55;;;2.50;;
70951;SDS011;69214;55.880;37.542;2023-08-06T12:25:03;5.40;;;2.50;;
70951;SDS011;69214;55.880;37.542;2023-08-06T12:27:37;5.22;;;2.15;;
70951;SDS011;69214;55.880;37.542;2023-08-06T12:30:04;4.22;;;2.28;;
70951;SDS011;69214;55.880;37.542;2023-08-06T12:32:34;5.25;;;2.50;;
70951;SDS011;69214;55.880;37.542;2023-08-06T12:35:00;5.28;;;2.55;;
70951;SDS011;69214;55.880;37.542;2023-08-06T12:37:31;5.37;;;2.90;;
70951;SDS011;69214;55.880;37.542;2023-08-06T12:39:57;4.57;;;2.70;;
70951;SDS011;69214;55.880;37.542;2023-08-06T12:42:23;5.13;;;2.30;;
70951;SDS011;69214;55.880;37.542;2023-08-06T12:44:50;4.45;;;2.22;;
70951;SDS011;69214;55.880;37.542;2023-08-06T12:47:18;5.43;;;2.53;;
70951;SDS011;69214;55.880;37.542;2023-08-06T12:49:45;4.80;;;2.63;;
70951;SDS011;69214;55.880;37.542;2023-08-06T12:52:11;5.78;;;2.28;;
70951;SDS011;69214;55.880;37.542;2023-08-06T12:54:40;7.95;;;2.53;;
70951;SDS011;69214;55.880;37.542;2023-08-06T12:57:07;8.80;;;2.22;;
70951;SDS011;69214;55.880;37.542;2023-08-06T12:59:33;4.70;;;2.28;;
70951;SDS011;69214;55.880;37.542;2023-08-06T13:01:59;5.87;;;2.30;;
70951;SDS011;69214;55.880;37.542;2023-08-06T13:04:26;4.82;;;2.30;;
70951;SDS011;69214;55.880;37.542;2023-08-06T13:06:53;6.25;;;2.53;;
70951;SDS011;69214;55.880;37.542;2023-08-06T13:09:20;5.97;;;2.45;;
70951;SDS011;69214;55.880;37.542;2023-08-06T13:11:46;5.78;;;2.78;;
70951;SDS011;69214;55.880;37.542;2023-08-06T13:14:16;6.93;;;2.43;;
70951;SDS011;69214;55.880;37.542;2023-08-06T13:16:42;6.07;;;2.08;;
70951;SDS011;69214;55.880;37.542;2023-08-06T13:19:09;5.30;;;2.03;;
70951;SDS011;69214;55.880;37.542;2023-08-06T13:21:37;6.55;;;2.25;;
70951;SDS011;69214;55.880;37.542;2023-08-06T13:24:24;6.13;;;2.33;;
70951;SDS011;69214;55.880;37.542;2023-08-06T13:26:49;8.27;;;2.40;;
70951;SDS011;69214;55.880;37.542;2023-08-06T13:29:15;4.18;;;2.00;;
70951;SDS011;69214;55.880;37.542;2023-08-06T13:31:41;4.20;;;2.40;;
70951;SDS011;69214;55.880;37.542;2023-08-06T13:34:07;7.13;;;2.58;;
70951;SDS011;69214;55.880;37.542;2023-08-06T13:36:33;4.40;;;2.40;;
70951;SDS011;69214;55.880;37.542;2023-08-06T13:38:58;7.60;;;2.63;;
70951;SDS011;69214;55.880;37.542;2023-08-06T13:41:24;4.15;;;2.22;;
70951;SDS011;69214;55.880;37.542;2023-08-06T13:43:51;4.03;;;2.10;;
70951;SDS011;69214;55.880;37.542;2023-08-06T13:46:17;8.10;;;2.30;;
70951;SDS011;69214;55.880;37.542;2023-08-06T13:48:47;5.80;;;2.40;;
70951;SDS011;69214;55.880;37.542;2023-08-06T13:51:17;5.13;;;2.10;;
70951;SDS011;69214;55.880;37.542;2023-08-06T13:53:44;7.80;;;2.38;;
70951;SDS011;69214;55.880;37.542;2023-08-06T13:56:10;7.97;;;2.10;;
70951;SDS011;69214;55.880;37.542;2023-08-06T13:58:40;6.47;;;2.17;;
70951;SDS011;69214;55.880;37.542;2023-08-06T14:01:06;4.95;;;2.15;;
70951;SDS011;69214;55.880;37.542;2023-08-06T14:03:32;6.80;;;2.13;;
70951;SDS011;69214;55.880;37.542;2023-08-06T14:05:58;5.60;;;2.20;;
70951;SDS011;69214;55.880;37.542;2023-08-06T14:08:24;5.07;;;2.65;;
70951;SDS011;69214;55.880;37.542;2023-08-06T14:10:51;4.80;;;2.23;;
70951;SDS011;69214;55.880;37.542;2023-08-06T14:13:18;5.15;;;2.40;;
70951;SDS011;69214;55.880;37.542;2023-08-06T14:15:44;7.40;;;2.40;;
70951;SDS011;69214;55.880;37.542;2023-08-06T14:18:13;6.72;;;2.42;;
70951;SDS011;69214;55.880;37.542;2023-08-06T14:20:41;5.88;;;2.25;;
70951;SDS011;69214;55.880;37.542;2023-08-06T14:23:07;4.00;;;1.80;;
70951;SDS011;69214;55.880;37.542;2023-08-06T14:25:33;5.90;;;2.28;;
70951;SDS011;69214;55.880;37.542;2023-08-06T14:27:59;5.07;;;2.22;;
70951;SDS011;69214;55.880;37.542;2023-08-06T14:30:25;5.95;;;2.20;;
70951;SDS011;69214;55.880;37.542;2023-08-06T14:32:51;5.07;;;2.33;;
70951;SDS011;69214;55.880;37.542;2023-08-06T14:35:17;5.95;;;2.35;;
70951;SDS011;69214;55.880;37.542;2023-08-06T14:37:43;6.85;;;2.50;;
70951;SDS011;69214;55.880;37.542;2023-08-06T14:40:10;4.93;;;2.42;;
70951;SDS011;69214;55.880;37.542;2023-08-06T14:42:37;3.83;;;1.90;;
70951;SDS011;69214;55.880;37.542;2023-08-06T14:45:03;6.57;;;2.50;;